Pagrindinis puslapis
METAR-TAF:

METAR-TAF

Oro uostai :

Komodoro Rivadavija, Argentina

platuma: 45-47S, ilguma: 067-30W, Aukštis: 58 m

Dabartinis oras

Ataskaita buvo paskelbta 1 valandą ir 11 minutes, ne 22:00 UTC
Vėjas 9 kt iš Šiaurės Rytų
Temperatūra 21°C
Drėgmė 35%
Slėgis 1025 hPa
Matomumas 10 km arba daugiau
nėra debesų žemiau 1500 m ir nėra kamuolinių lietaus debesų

METAR: SAVC 212200Z 05009KT CAVOK 21/05 Q1025

Laikas: 20:11 (23:11 UTC)

Prognozė

Ataskaita buvo paskelbta 6 valandos ir 11 minutes, ne 17:00 UTC
Prognozė galioja nuo 21 metu 18 UTC su 22 metu 18 UTC
Vėjas 10 kt iš Rytų
Matomumas 10 km arba daugiau
nėra debesų žemiau 1500 m ir nėra kamuolinių lietaus debesų
Tapsmas
nuo 22 metu 02 UTC su 22 metu 04 UTC
Vėjas 10 kt iš Šiaurės Vakarų

TAF: SAVC 211700Z 2118/2218 09010KT CAVOK TX24/2118Z TN12/2112Z BECMG 2202/2204 32010KT

Orai ataskaitas ir orų prognozės (METAR, TAF).

turimą stotys yra geltonos ir raudonos taškus žemėlapyje.

Perkelti pele per norėdami pamatyti stoties vardą.

Tada spustelėkite, norėdami matyti oro stebėjimo ir prognozės.

Norėdami pakeisti žemėlapį: spustelėkite ant žalios mygtukų su juodo kryžiaus žemyn,; žalią mygtuką su brūkšneliu, jei norite nutolinti; arba žalių rodyklių gretimoms žemėlapius.


METAR-TAF: